Time,TemperatureF,DewpointF,PressureIn,WindDirection,WindDirectionDegrees,WindSpeedMPH,WindSpeedGustMPH,Humidity,HourlyPrecipIn,Conditions,Clouds,dailyrainin,SoftwareType,DateUTC
2013-04-15 00:07:00,52.2,34.0,30.04,South,177,11.0,-999.0,51,-99.99,,,0.00,weatherlink.com 1.10,2013-04-15 04:07:00,
2013-04-15 00:22:00,52.2,34.0,30.04,SSE,159,7.0,-999.0,51,-99.99,,,0.00,weatherlink.com 1.10,2013-04-15 04:22:00,
2013-04-15 00:37:00,52.0,35.0,30.05,South,180,13.0,-999.0,52,-99.99,,,0.00,weatherlink.com 1.10,2013-04-15 04:37:00,
2013-04-15 00:52:00,50.8,37.0,30.04,SSE,157,5.0,-999.0,59,-99.99,,,0.00,weatherlink.com 1.10,2013-04-15 04:52:00,
2013-04-15 01:07:00,49.6,38.0,30.04,SE,142,5.0,-999.0,64,-99.99,,,0.00,weatherlink.com 1.10,2013-04-15 05:07:00,
2013-04-15 01:23:00,48.6,38.0,30.04,SSW,204,5.0,-999.0,67,-99.99,,,0.00,weatherlink.com 1.10,2013-04-15 05:23:00,
2013-04-15 01:38:00,48.0,39.0,30.04,South,178,5.0,-999.0,72,-99.99,,,0.01,weatherlink.com 1.10,2013-04-15 05:38:00,
2013-04-15 01:53:00,46.4,40.0,30.04,East,84,5.0,-999.0,79,-99.99,,,0.02,weatherlink.com 1.10,2013-04-15 05:53:00,
2013-04-15 02:08:00,45.1,41.0,30.04,SSE,150,6.0,-999.0,84,-99.99,,,0.02,weatherlink.com 1.10,2013-04-15 06:08:00,
2013-04-15 02:23:00,44.6,41.0,30.03,SSE,150,4.0,-999.0,87,-99.99,,,0.03,weatherlink.com 1.10,2013-04-15 06:23:00,
2013-04-15 02:38:00,43.9,41.0,30.03,South,171,4.0,-999.0,89,-99.99,,,0.04,weatherlink.com 1.10,2013-04-15 06:38:00,
2013-04-15 02:53:00,43.4,40.0,30.02,SSW,194,5.0,-999.0,87,-99.99,,,0.06,weatherlink.com 1.10,2013-04-15 06:53:00,
2013-04-15 03:53:00,42.4,34.0,30.01,SSE,156,14.0,-999.0,72,-99.99,,,0.12,weatherlink.com 1.10,2013-04-15 07:53:00,
2013-04-15 04:08:00,42.2,33.0,30.00,NE,49,3.0,-999.0,70,-99.99,,,0.12,weatherlink.com 1.10,2013-04-15 08:08:00,
2013-04-15 04:23:00,42.1,33.0,30.00,South,191,10.0,-999.0,69,-99.99,,,0.14,weatherlink.com 1.10,2013-04-15 08:23:00,
2013-04-15 04:38:00,42.1,32.0,30.01,NNW,341,7.0,-999.0,68,-99.99,,,0.14,weatherlink.com 1.10,2013-04-15 08:38:00,
2013-04-15 04:53:00,42.1,32.0,30.01,SE,135,4.0,-999.0,68,-99.99,,,0.16,weatherlink.com 1.10,2013-04-15 08:53:00,
2013-04-15 05:08:00,42.0,32.0,30.01,SW,225,6.0,-999.0,67,-99.99,,,0.17,weatherlink.com 1.10,2013-04-15 09:08:00,
2013-04-15 05:23:00,41.8,32.0,30.02,SW,225,6.0,-999.0,67,-99.99,,,0.20,weatherlink.com 1.10,2013-04-15 09:23:00,
2013-04-15 05:38:00,41.8,32.0,30.00,ESE,119,9.0,-999.0,67,-99.99,,,0.22,weatherlink.com 1.10,2013-04-15 09:38:00,
2013-04-15 05:53:00,41.3,31.0,30.00,ESE,107,12.0,-999.0,67,-99.99,,,0.23,weatherlink.com 1.10,2013-04-15 09:53:00,
2013-04-15 06:08:00,41.0,31.0,30.00,East,94,5.0,-999.0,67,-99.99,,,0.24,weatherlink.com 1.10,2013-04-15 10:08:00,
2013-04-15 06:23:00,40.9,31.0,30.01,SE,134,7.0,-999.0,67,-99.99,,,0.25,weatherlink.com 1.10,2013-04-15 10:23:00,
2013-04-15 06:38:00,41.0,31.0,30.02,East,79,9.0,-999.0,67,-99.99,,,0.26,weatherlink.com 1.10,2013-04-15 10:38:00,
2013-04-15 06:53:00,40.9,31.0,30.01,ENE,64,13.0,-999.0,67,-99.99,,,0.27,weatherlink.com 1.10,2013-04-15 10:53:00,
2013-04-15 07:08:00,40.5,30.0,30.02,East,82,9.0,-999.0,66,-99.99,,,0.29,weatherlink.com 1.10,2013-04-15 11:08:00,
2013-04-15 07:23:00,40.5,30.0,30.02,ENE,62,10.0,-999.0,66,-99.99,,,0.31,weatherlink.com 1.10,2013-04-15 11:23:00,
2013-04-15 07:38:00,40.4,30.0,30.03,NE,49,10.0,-999.0,66,-99.99,,,0.32,weatherlink.com 1.10,2013-04-15 11:38:00,
2013-04-15 07:53:00,40.3,30.0,30.03,South,170,9.0,-999.0,66,-99.99,,,0.33,weatherlink.com 1.10,2013-04-15 11:53:00,
2013-04-15 08:09:00,40.2,30.0,30.03,East,92,16.0,-999.0,66,-99.99,,,0.34,weatherlink.com 1.10,2013-04-15 12:09:00,
2013-04-15 08:24:00,40.2,30.0,30.04,ENE,71,19.0,-999.0,66,-99.99,,,0.35,weatherlink.com 1.10,2013-04-15 12:24:00,
2013-04-15 08:39:00,40.2,30.0,30.04,East,83,10.0,-999.0,66,-99.99,,,0.37,weatherlink.com 1.10,2013-04-15 12:39:00,
2013-04-15 08:54:00,40.4,30.0,30.05,East,80,10.0,-999.0,66,-99.99,,,0.38,weatherlink.com 1.10,2013-04-15 12:54:00,
2013-04-15 09:09:00,40.6,30.0,30.05,NE,55,8.0,-999.0,67,-99.99,,,0.38,weatherlink.com 1.10,2013-04-15 13:09:00,
2013-04-15 09:24:00,40.7,30.0,30.05,NE,46,5.0,-999.0,67,-99.99,,,0.39,weatherlink.com 1.10,2013-04-15 13:24:00,
2013-04-15 09:39:00,40.9,31.0,30.05,East,90,7.0,-999.0,67,-99.99,,,0.40,weatherlink.com 1.10,2013-04-15 13:39:00,
2013-04-15 09:54:00,41.1,31.0,30.05,ENE,65,9.0,-999.0,67,-99.99,,,0.41,weatherlink.com 1.10,2013-04-15 13:54:00,
2013-04-15 10:09:00,41.3,31.0,30.05,ENE,63,15.0,-999.0,67,-99.99,,,0.41,weatherlink.com 1.10,2013-04-15 14:09:00,
2013-04-15 10:24:00,41.4,31.0,30.06,ENE,71,11.0,-999.0,67,-99.99,,,0.42,weatherlink.com 1.10,2013-04-15 14:24:00,
2013-04-15 10:39:00,41.4,31.0,30.07,SE,142,11.0,-999.0,67,-99.99,,,0.42,weatherlink.com 1.10,2013-04-15 14:39:00,
2013-04-15 11:09:00,41.6,31.0,30.07,ENE,69,12.0,-999.0,67,-99.99,,,0.44,weatherlink.com 1.10,2013-04-15 15:09:00,
2013-04-15 11:24:00,41.7,31.0,30.07,ENE,63,11.0,-999.0,67,-99.99,,,0.45,weatherlink.com 1.10,2013-04-15 15:24:00,
2013-04-15 11:39:00,41.9,32.0,30.07,East,95,7.0,-999.0,67,-99.99,,,0.46,weatherlink.com 1.10,2013-04-15 15:39:00,
2013-04-15 11:54:00,41.9,32.0,30.07,East,80,15.0,-999.0,67,-99.99,,,0.46,weatherlink.com 1.10,2013-04-15 15:54:00,
2013-04-15 12:24:00,42.0,32.0,30.09,South,170,7.0,-999.0,67,-99.99,,,0.46,weatherlink.com 1.10,2013-04-15 16:24:00,
2013-04-15 12:39:00,42.3,32.0,30.09,East,94,7.0,-999.0,67,-99.99,,,0.46,weatherlink.com 1.10,2013-04-15 16:39:00,
2013-04-15 12:54:00,42.6,32.0,30.09,East,87,4.0,-999.0,67,-99.99,,,0.47,weatherlink.com 1.10,2013-04-15 16:54:00,
2013-04-15 13:09:00,42.5,32.0,30.09,SSE,167,4.0,-999.0,67,-99.99,,,0.48,weatherlink.com 1.10,2013-04-15 17:09:00,
2013-04-15 13:24:00,42.7,32.0,30.09,SE,146,14.0,-999.0,67,-99.99,,,0.48,weatherlink.com 1.10,2013-04-15 17:24:00,
2013-04-15 13:54:00,42.7,32.0,30.10,SE,143,13.0,-999.0,67,-99.99,,,0.48,weatherlink.com 1.10,2013-04-15 17:54:00,
2013-04-15 14:09:00,42.4,32.0,30.11,South,186,4.0,-999.0,67,-99.99,,,0.48,weatherlink.com 1.10,2013-04-15 18:09:00,
2013-04-15 14:24:00,42.6,32.0,30.11,South,177,6.0,-999.0,67,-99.99,,,0.48,weatherlink.com 1.10,2013-04-15 18:24:00,
2013-04-15 14:39:00,43.2,33.0,30.11,SSE,154,9.0,-999.0,67,-99.99,,,0.48,weatherlink.com 1.10,2013-04-15 18:39:00,
2013-04-15 14:54:00,42.9,33.0,30.11,SSE,147,9.0,-999.0,67,-99.99,,,0.48,weatherlink.com 1.10,2013-04-15 18:54:00,
2013-04-15 15:09:00,42.6,32.0,30.11,South,173,9.0,-999.0,67,-99.99,,,0.48,weatherlink.com 1.10,2013-04-15 19:09:00,
2013-04-15 15:24:00,42.6,32.0,30.11,SSW,197,11.0,-999.0,67,-99.99,,,0.48,weatherlink.com 1.10,2013-04-15 19:24:00,
2013-04-15 15:39:00,42.7,32.0,30.11,SE,127,7.0,-999.0,67,-99.99,,,0.48,weatherlink.com 1.10,2013-04-15 19:39:00,
2013-04-15 16:09:00,42.9,33.0,30.11,SE,134,9.0,-999.0,67,-99.99,,,0.48,weatherlink.com 1.10,2013-04-15 20:09:00,
2013-04-15 16:24:00,42.9,33.0,30.11,SE,126,8.0,-999.0,67,-99.99,,,0.48,weatherlink.com 1.10,2013-04-15 20:24:00,
2013-04-15 16:39:00,43.5,33.0,30.11,SSE,168,6.0,-999.0,67,-99.99,,,0.48,weatherlink.com 1.10,2013-04-15 20:39:00,
2013-04-15 16:54:00,43.3,33.0,30.12,ESE,115,2.0,-999.0,67,-99.99,,,0.48,weatherlink.com 1.10,2013-04-15 20:54:00,
2013-04-15 17:09:00,43.5,33.0,30.12,South,189,11.0,-999.0,67,-99.99,,,0.48,weatherlink.com 1.10,2013-04-15 21:09:00,
2013-04-15 17:24:00,43.5,33.0,30.13,SSW,196,1.0,-999.0,67,-99.99,,,0.48,weatherlink.com 1.10,2013-04-15 21:24:00,
2013-04-15 17:39:00,43.5,33.0,30.13,ESE,122,8.0,-999.0,67,-99.99,,,0.48,weatherlink.com 1.10,2013-04-15 21:39:00,
2013-04-15 17:54:00,43.6,33.0,30.13,SSW,200,3.0,-999.0,67,-99.99,,,0.48,weatherlink.com 1.10,2013-04-15 21:54:00,
2013-04-15 18:09:00,43.7,33.0,30.14,SSW,203,6.0,-999.0,67,-99.99,,,0.48,weatherlink.com 1.10,2013-04-15 22:09:00,
2013-04-15 18:24:00,43.8,33.0,30.13,SE,145,9.0,-999.0,67,-99.99,,,0.48,weatherlink.com 1.10,2013-04-15 22:24:00,
2013-04-15 18:39:00,43.9,33.0,30.13,South,185,6.0,-999.0,66,-99.99,,,0.48,weatherlink.com 1.10,2013-04-15 22:39:00,
2013-04-15 18:54:00,43.9,33.0,30.14,South,188,7.0,-999.0,66,-99.99,,,0.48,weatherlink.com 1.10,2013-04-15 22:54:00,
2013-04-15 19:09:00,43.9,33.0,30.14,SSE,157,2.0,-999.0,66,-99.99,,,0.48,weatherlink.com 1.10,2013-04-15 23:09:00,
2013-04-15 19:24:00,43.9,33.0,30.14,SSW,194,5.0,-999.0,66,-99.99,,,0.48,weatherlink.com 1.10,2013-04-15 23:24:00,
2013-04-15 19:39:00,44.0,33.0,30.15,SE,125,8.0,-999.0,66,-99.99,,,0.48,weatherlink.com 1.10,2013-04-15 23:39:00,
2013-04-15 19:54:00,44.1,33.0,30.15,SE,131,5.0,-999.0,66,-99.99,,,0.48,weatherlink.com 1.10,2013-04-15 23:54:00,
2013-04-15 20:09:00,44.1,33.0,30.15,East,88,6.0,-999.0,66,-99.99,,,0.48,weatherlink.com 1.10,2013-04-16 00:09:00,
2013-04-15 20:24:00,44.1,34.0,30.15,SE,144,6.0,-999.0,67,-99.99,,,0.48,weatherlink.com 1.10,2013-04-16 00:24:00,
2013-04-15 20:39:00,44.1,34.0,30.15,ESE,117,7.0,-999.0,67,-99.99,,,0.48,weatherlink.com 1.10,2013-04-16 00:39:00,
2013-04-15 20:54:00,44.2,34.0,30.16,SSE,150,5.0,-999.0,67,-99.99,,,0.48,weatherlink.com 1.10,2013-04-16 00:54:00,
2013-04-15 21:09:00,44.2,34.0,30.17,South,171,5.0,-999.0,67,-99.99,,,0.48,weatherlink.com 1.10,2013-04-16 01:09:00,
2013-04-15 21:24:00,44.3,34.0,30.18,SSE,155,6.0,-999.0,67,-99.99,,,0.48,weatherlink.com 1.10,2013-04-16 01:24:00,
2013-04-15 21:39:00,44.5,34.0,30.18,SSE,157,13.0,-999.0,67,-99.99,,,0.48,weatherlink.com 1.10,2013-04-16 01:39:00,
2013-04-15 21:54:00,44.6,34.0,30.19,South,186,6.0,-999.0,67,-99.99,,,0.48,weatherlink.com 1.10,2013-04-16 01:54:00,
2013-04-15 22:09:00,44.6,34.0,30.20,SW,226,4.0,-999.0,67,-99.99,,,0.48,weatherlink.com 1.10,2013-04-16 02:09:00,
2013-04-15 22:25:00,44.7,34.0,30.20,SE,139,9.0,-999.0,67,-99.99,,,0.49,weatherlink.com 1.10,2013-04-16 02:25:00,
2013-04-15 22:40:00,44.7,34.0,30.21,South,181,9.0,-999.0,67,-99.99,,,0.49,weatherlink.com 1.10,2013-04-16 02:40:00,
2013-04-15 22:55:00,44.9,34.0,30.20,South,172,7.0,-999.0,67,-99.99,,,0.49,weatherlink.com 1.10,2013-04-16 02:55:00,
2013-04-15 23:10:00,44.8,34.0,30.20,SSW,209,9.0,-999.0,67,-99.99,,,0.49,weatherlink.com 1.10,2013-04-16 03:10:00,
2013-04-15 23:25:00,44.8,34.0,30.20,SSW,198,11.0,-999.0,67,-99.99,,,0.49,weatherlink.com 1.10,2013-04-16 03:25:00,
2013-04-15 23:40:00,44.9,34.0,30.21,South,186,5.0,-999.0,67,-99.99,,,0.49,weatherlink.com 1.10,2013-04-16 03:40:00,
2013-04-15 23:55:00,44.9,34.0,30.21,SSE,153,7.0,-999.0,67,-99.99,,,0.49,weatherlink.com 1.10,2013-04-16 03:55:00,